Time;durP1;ratioP1;P1;durP2;ratioP2;P2;SDS_P1;SDS_P2;PMS_P1;PMS_P2;Temp;Humidity;BMP_temperature;BMP_pressure;BME280_temperature;BME280_humidity;BME280_pressure;Samples;Min_cycle;Max_cycle;Signal;HPM_P1;HPM_P2
2022/08/22 00:01:06;;;;;;;14.77;4.90;;;16.70;99.90;;;;;;5103539;28;20246;-85
2022/08/22 00:03:53;;;;;;;9.93;3.53;;;16.70;99.90;;;;;;5100031;28;20256;-84
2022/08/22 00:06:25;;;;;;;4.97;2.87;;;16.80;99.90;;;;;;5107208;28;20228;-84
2022/08/22 00:09:09;;;;;;;4.93;3.73;;;16.80;99.90;;;;;;5103340;28;20211;-83
2022/08/22 00:11:55;;;;;;;9.53;4.50;;;16.90;99.90;;;;;;5082236;28;20524;-84
2022/08/22 00:14:45;;;;;;;6.43;3.73;;;16.90;99.90;;;;;;5097054;28;20207;-84
2022/08/22 00:17:28;;;;;;;4.97;3.30;;;17.00;99.90;;;;;;5101474;28;20556;-83
2022/08/22 00:20:08;;;;;;;5.23;3.43;;;17.00;99.90;;;;;;5088919;28;20220;-83
2022/08/22 00:22:50;;;;;;;6.27;3.13;;;17.10;99.90;;;;;;5100815;28;20227;-83
2022/08/22 00:25:16;;;;;;;9.70;4.93;;;17.10;99.90;;;;;;5089502;28;20671;-82
2022/08/22 00:27:55;;;;;;;6.97;4.00;;;17.10;99.90;;;;;;5102690;28;20216;-81
2022/08/22 00:30:21;;;;;;;8.20;3.70;;;17.00;99.90;;;;;;5100786;28;20591;-81
2022/08/22 00:33:00;;;;;;;4.87;3.33;;;17.00;99.90;;;;;;5082526;28;20228;-84
2022/08/22 00:35:34;;;;;;;6.10;2.83;;;17.00;99.90;;;;;;5101336;28;20199;-83
2022/08/22 00:38:03;;;;;;;11.07;4.40;;;17.10;99.90;;;;;;5104838;28;20177;-84
2022/08/22 00:40:59;;;;;;;4.53;3.20;;;17.10;99.90;;;;;;5102517;28;20698;-83
2022/08/22 00:43:40;;;;;;;4.90;3.00;;;17.10;99.90;;;;;;5100283;28;20227;-84
2022/08/22 00:46:29;;;;;;;7.60;3.83;;;17.10;99.90;;;;;;5104278;28;20277;-83
2022/08/22 00:49:05;;;;;;;6.77;3.30;;;17.00;99.90;;;;;;5103153;28;20227;-83
2022/08/22 00:51:56;;;;;;;6.57;3.90;;;17.00;99.90;;;;;;5100244;28;20261;-84
2022/08/22 00:54:49;;;;;;;3.80;3.20;;;16.90;99.90;;;;;;5100079;28;20252;-83
2022/08/22 00:57:24;;;;;;;7.47;3.80;;;16.90;99.90;;;;;;5103870;28;20634;-84
2022/08/22 01:00:12;;;;;;;4.60;3.63;;;16.90;99.90;;;;;;5104062;28;20219;-82
2022/08/22 01:03:00;;;;;;;6.20;3.67;;;16.70;99.90;;;;;;5099892;28;20306;-84
2022/08/22 01:05:33;;;;;;;6.63;3.53;;;16.60;99.90;;;;;;5095955;28;20193;-83
2022/08/22 01:08:20;;;;;;;4.93;3.50;;;16.60;99.90;;;;;;5091288;28;20189;-83
2022/08/22 01:10:59;;;;;;;5.80;3.60;;;16.50;99.90;;;;;;5088389;28;20201;-82
2022/08/22 01:13:37;;;;;;;9.17;4.37;;;16.50;99.90;;;;;;5092411;28;20709;-83
2022/08/22 01:16:34;;;;;;;7.03;4.00;;;16.50;99.90;;;;;;5081787;28;20220;-82
2022/08/22 01:19:24;;;;;;;6.90;3.60;;;16.50;99.90;;;;;;5084963;28;20298;-83
2022/08/22 01:22:24;;;;;;;14.57;4.67;;;16.50;99.90;;;;;;5084371;28;20227;-84
2022/08/22 01:25:17;;;;;;;6.00;3.30;;;16.50;99.90;;;;;;5099910;28;20209;-82
2022/08/22 01:28:35;;;;;;;5.90;3.70;;;16.50;99.90;;;;;;5099672;28;20742;-84
2022/08/22 01:31:38;;;;;;;6.23;4.20;;;16.40;99.90;;;;;;5089688;28;20213;-83
2022/08/22 01:34:23;;;;;;;5.43;3.00;;;16.30;99.90;;;;;;5090905;28;20318;-82
2022/08/22 01:37:16;;;;;;;7.17;4.13;;;16.10;99.90;;;;;;5099730;28;20219;-84
2022/08/22 01:40:02;;;;;;;5.53;2.60;;;16.00;99.90;;;;;;5091212;28;20582;-84
2022/08/22 01:42:37;;;;;;;6.07;3.40;;;15.90;99.90;;;;;;5081363;28;20225;-84
2022/08/22 01:45:33;;;;;;;6.10;3.57;;;15.80;99.90;;;;;;5099525;28;20623;-84
2022/08/22 01:48:05;;;;;;;4.90;2.53;;;15.80;99.90;;;;;;5099358;28;20741;-85
2022/08/22 01:50:54;;;;;;;4.60;3.20;;;15.70;99.90;;;;;;5099914;28;20199;-85
2022/08/22 01:53:29;;;;;;;7.57;4.23;;;15.70;99.90;;;;;;5087172;28;20206;-85
2022/08/22 01:56:10;;;;;;;8.77;3.87;;;15.70;99.90;;;;;;5086188;28;20585;-84
2022/08/22 01:58:44;;;;;;;9.93;3.90;;;15.70;99.90;;;;;;5082701;28;20640;-84
2022/08/22 02:01:39;;;;;;;5.03;3.30;;;15.80;99.90;;;;;;5099946;28;20785;-85
2022/08/22 02:04:18;;;;;;;6.53;3.40;;;15.80;99.90;;;;;;5021487;28;20234;-84
2022/08/22 02:06:46;;;;;;;4.70;2.90;;;15.70;99.90;;;;;;5020221;28;20246;-84
2022/08/22 02:09:37;;;;;;;5.00;3.50;;;15.50;99.90;;;;;;5018514;28;20241;-84
2022/08/22 02:12:25;;;;;;;4.10;2.77;;;15.20;99.90;;;;;;5016224;28;20219;-85
2022/08/22 02:15:16;;;;;;;4.57;2.97;;;14.90;99.90;;;;;;5019231;28;20686;-84
2022/08/22 02:18:05;;;;;;;6.07;3.87;;;14.90;99.90;;;;;;5018257;28;20272;-84
2022/08/22 02:20:46;;;;;;;4.27;3.10;;;14.90;99.90;;;;;;5015463;28;20190;-85
2022/08/22 02:23:29;;;;;;;7.87;3.17;;;15.00;99.90;;;;;;5019133;28;20213;-85
2022/08/22 02:26:00;;;;;;;4.47;3.53;;;15.00;99.90;;;;;;5032347;28;20220;-85
2022/08/22 02:28:30;;;;;;;6.20;3.30;;;15.10;99.90;;;;;;5019614;28;20222;-85
2022/08/22 02:31:24;;;;;;;113.07;8.07;;;15.10;99.90;;;;;;5021285;28;20750;-85
2022/08/22 02:33:57;;;;;;;3.20;1.90;;;14.90;99.90;;;;;;5023608;28;20226;-85
2022/08/22 02:36:45;;;;;;;3.53;2.13;;;14.60;99.90;;;;;;5018914;28;20783;-85
2022/08/22 02:39:19;;;;;;;3.43;2.90;;;14.60;99.90;;;;;;5019307;28;20221;-85
2022/08/22 02:42:21;;;;;;;4.67;2.63;;;14.60;99.90;;;;;;5020983;28;20243;-84
2022/08/22 02:45:17;;;;;;;2.60;1.70;;;14.60;99.90;;;;;;5020096;28;20293;-82
2022/08/22 02:48:09;;;;;;;3.80;2.13;;;14.60;99.90;;;;;;5021643;28;20222;-82
2022/08/22 02:50:58;;;;;;;4.40;2.60;;;14.50;99.90;;;;;;5020684;28;20271;-82
2022/08/22 02:53:45;;;;;;;4.73;3.33;;;14.50;99.90;;;;;;5022921;28;20199;-82
2022/08/22 02:56:25;;;;;;;7.10;3.00;;;14.60;99.90;;;;;;5022960;28;20186;-86
2022/08/22 02:59:11;;;;;;;7.70;3.97;;;14.70;99.90;;;;;;5019476;28;20207;-82
2022/08/22 03:01:41;;;;;;;8.63;4.67;;;14.80;99.90;;;;;;5018949;28;20247;-83
2022/08/22 03:04:28;;;;;;;4.13;3.33;;;14.90;99.90;;;;;;5015023;28;20601;-83
2022/08/22 03:07:24;;;;;;;9.67;3.87;;;15.00;99.90;;;;;;5025459;28;20318;-83
2022/08/22 03:10:35;;;;;;;7.03;3.90;;;15.00;99.90;;;;;;5018958;28;20310;-83
2022/08/22 03:13:15;;;;;;;10.30;4.23;;;15.00;99.90;;;;;;5019728;28;20231;-83
2022/08/22 03:16:05;;;;;;;7.90;4.67;;;15.10;99.90;;;;;;5019036;28;20429;-83
2022/08/22 03:19:02;;;;;;;5.80;3.40;;;15.00;99.90;;;;;;5022555;28;20730;-83
2022/08/22 03:22:06;;;;;;;2.70;2.40;;;14.90;99.90;;;;;;5019674;28;20574;-84
2022/08/22 03:24:58;;;;;;;5.23;2.90;;;14.60;99.90;;;;;;5019458;28;20231;-83
2022/08/22 03:27:32;;;;;;;3.83;2.23;;;14.40;99.90;;;;;;5025374;28;20214;-83
2022/08/22 03:30:06;;;;;;;3.87;2.73;;;14.50;99.90;;;;;;5019816;28;20229;-82
2022/08/22 03:32:55;;;;;;;9.83;2.80;;;14.60;99.90;;;;;;5017540;28;20462;-83
2022/08/22 03:35:51;;;;;;;5.17;2.43;;;14.60;99.90;;;;;;5018010;28;20191;-83
2022/08/22 03:38:33;;;;;;;2.03;1.77;;;14.50;99.90;;;;;;5026614;28;20183;-84
2022/08/22 03:41:23;;;;;;;3.90;2.03;;;14.40;99.90;;;;;;5018069;28;20536;-83
2022/08/22 03:44:03;;;;;;;6.13;2.50;;;14.30;99.90;;;;;;5018816;28;20377;-82
2022/08/22 03:46:49;;;;;;;3.43;2.20;;;14.10;99.90;;;;;;5026607;28;20241;-83
2022/08/22 03:50:08;;;;;;;1.97;1.43;;;14.10;99.90;;;;;;5016191;28;20215;-83
2022/08/22 03:53:10;;;;;;;4.83;2.20;;;14.20;99.90;;;;;;4987790;28;20232;-83
2022/08/22 03:56:11;;;;;;;12.27;2.33;;;14.10;99.90;;;;;;5016824;28;20590;-83
2022/08/22 03:59:07;;;;;;;3.83;2.27;;;14.10;99.90;;;;;;5021013;28;20215;-84
2022/08/22 04:02:14;;;;;;;4.43;2.37;;;14.20;99.90;;;;;;5017956;28;20677;-83
2022/08/22 04:04:51;;;;;;;5.17;2.20;;;14.20;99.90;;;;;;5000441;28;20750;-83
2022/08/22 04:07:18;;;;;;;2.00;1.00;;;14.20;99.90;;;;;;5020593;28;20245;-85
2022/08/22 04:10:13;;;;;;;1.03;0.83;;;14.10;99.90;;;;;;5019473;28;20223;-82
2022/08/22 04:12:54;;;;;;;13.93;2.17;;;14.00;99.90;;;;;;5024467;28;20692;-82
2022/08/22 04:15:26;;;;;;;2.57;2.10;;;13.80;99.90;;;;;;5013736;28;20219;-83
2022/08/22 04:18:01;;;;;;;2.57;1.63;;;13.90;99.90;;;;;;5020455;28;20222;-82
2022/08/22 04:21:11;;;;;;;2.70;1.40;;;13.90;99.90;;;;;;5018038;28;20665;-83
2022/08/22 04:24:04;;;;;;;1.73;1.50;;;14.10;99.90;;;;;;4985483;28;20350;-82
2022/08/22 04:26:48;;;;;;;2.07;1.80;;;14.10;99.90;;;;;;5017980;28;20199;-82
2022/08/22 04:29:19;;;;;;;2.33;1.70;;;14.10;99.90;;;;;;5018488;28;20184;-84
2022/08/22 04:31:58;;;;;;;0.73;0.70;;;14.10;99.90;;;;;;5019678;28;20293;-84
2022/08/22 04:34:40;;;;;;;2.37;1.30;;;14.10;99.90;;;;;;5017156;28;20539;-83
2022/08/22 04:37:18;;;;;;;9.33;1.97;;;14.10;99.90;;;;;;5015107;28;20586;-83
2022/08/22 04:39:55;;;;;;;9.70;2.37;;;14.00;99.90;;;;;;5017106;28;20207;-83
2022/08/22 04:42:33;;;;;;;11.17;1.60;;;13.90;99.90;;;;;;5017519;28;20226;-83
2022/08/22 04:45:16;;;;;;;5.20;1.30;;;13.90;99.90;;;;;;5020892;28;20225;-83
2022/08/22 04:47:49;;;;;;;1.53;1.00;;;13.90;99.90;;;;;;5016218;28;20293;-84
2022/08/22 04:50:20;;;;;;;1.30;1.00;;;13.90;99.90;;;;;;5022149;28;20206;-83
2022/08/22 04:53:11;;;;;;;6.67;1.23;;;13.90;99.90;;;;;;5016959;28;20234;-83
2022/08/22 04:56:07;;;;;;;1.20;1.10;;;14.00;99.90;;;;;;5014608;28;20227;-83
2022/08/22 04:59:11;;;;;;;2.10;1.00;;;14.20;99.90;;;;;;5016276;28;20319;-83
2022/08/22 05:01:58;;;;;;;1.23;1.00;;;14.20;99.90;;;;;;5018453;28;20235;-83
2022/08/22 05:04:48;;;;;;;2.23;1.67;;;14.30;99.90;;;;;;5016762;28;20253;-83
2022/08/22 05:07:31;;;;;;;2.13;1.50;;;14.50;99.90;;;;;;5016136;28;20680;-84
2022/08/22 05:10:12;;;;;;;1.77;1.33;;;14.70;99.90;;;;;;5023271;28;20605;-82
2022/08/22 05:12:46;;;;;;;1.80;1.67;;;14.80;99.90;;;;;;5020916;28;20310;-83
2022/08/22 05:15:34;;;;;;;2.10;1.57;;;15.00;99.90;;;;;;5016598;28;20226;-83
2022/08/22 05:18:06;;;;;;;3.03;1.40;;;15.10;99.90;;;;;;5016836;28;20322;-83
2022/08/22 05:20:33;;;;;;;2.07;1.87;;;15.20;99.90;;;;;;5027393;28;20217;-83
2022/08/22 05:23:06;;;;;;;4.37;2.00;;;15.30;99.90;;;;;;5019499;28;20190;-82
2022/08/22 05:25:34;;;;;;;2.83;1.80;;;15.50;99.90;;;;;;5016972;28;20230;-83
2022/08/22 05:28:37;;;;;;;2.47;1.63;;;15.80;99.90;;;;;;5020240;28;20571;-84
2022/08/22 05:31:09;;;;;;;6.93;1.87;;;16.20;99.90;;;;;;5007797;28;20307;-83
2022/08/22 05:33:51;;;;;;;2.50;1.77;;;16.30;99.90;;;;;;5020286;28;20709;-84
2022/08/22 05:36:32;;;;;;;3.97;2.27;;;16.40;99.90;;;;;;5031826;28;20230;-81
2022/08/22 05:39:13;;;;;;;6.50;2.87;;;16.50;99.90;;;;;;5015396;28;20298;-82
2022/08/22 05:41:40;;;;;;;3.53;2.20;;;16.40;99.90;;;;;;5023750;28;20227;-82
2022/08/22 05:44:15;;;;;;;1.70;1.60;;;16.50;99.90;;;;;;5031724;28;20226;-82
2022/08/22 05:46:55;;;;;;;4.50;1.57;;;16.50;99.90;;;;;;5013932;28;20217;-82
2022/08/22 05:50:10;;;;;;;2.33;1.93;;;16.40;99.90;;;;;;5018965;28;20310;-82
2022/08/22 05:53:05;;;;;;;2.87;2.13;;;16.30;99.90;;;;;;5022006;28;20305;-82
2022/08/22 05:56:04;;;;;;;1.90;1.70;;;16.10;99.90;;;;;;5022431;28;20689;-83
2022/08/22 05:58:42;;;;;;;4.53;1.80;;;16.20;99.90;;;;;;5029152;28;20348;-84
2022/08/22 06:01:26;;;;;;;2.53;1.83;;;16.60;99.90;;;;;;5016260;28;20610;-83
2022/08/22 06:04:23;;;;;;;3.63;2.23;;;16.60;99.90;;;;;;5022653;28;20732;-83
2022/08/22 06:07:01;;;;;;;4.33;1.80;;;16.70;99.90;;;;;;5007273;28;20656;-83
2022/08/22 06:09:29;;;;;;;3.40;2.63;;;16.80;99.90;;;;;;5031096;28;20214;-83
2022/08/22 06:12:18;;;;;;;5.27;2.83;;;16.80;99.90;;;;;;5020134;28;20305;-85
2022/08/22 06:15:17;;;;;;;6.10;2.73;;;16.80;99.90;;;;;;5023636;28;20682;-84
2022/08/22 06:17:50;;;;;;;7.80;3.43;;;16.90;99.90;;;;;;5038079;28;20681;-83
2022/08/22 06:20:22;;;;;;;4.23;3.17;;;17.00;99.90;;;;;;5026837;28;20216;-83
2022/08/22 06:22:52;;;;;;;3.80;2.93;;;17.10;99.90;;;;;;5020709;28;20285;-85
2022/08/22 06:25:26;;;;;;;4.83;3.20;;;17.10;99.90;;;;;;5100721;28;20283;-84
2022/08/22 06:27:53;;;;;;;5.63;3.33;;;17.10;99.90;;;;;;5014770;28;20264;-83
2022/08/22 06:30:20;;;;;;;4.50;2.87;;;17.20;99.90;;;;;;5018395;28;20265;-83
2022/08/22 06:32:52;;;;;;;4.27;2.50;;;17.40;99.90;;;;;;5011975;28;20697;-82
2022/08/22 06:35:26;;;;;;;3.57;3.13;;;17.40;99.90;;;;;;5014969;28;20175;-82
2022/08/22 06:37:57;;;;;;;5.00;2.67;;;17.70;99.90;;;;;;5018718;28;20190;-82
2022/08/22 06:40:25;;;;;;;6.13;3.10;;;17.70;99.90;;;;;;5019831;28;20263;-83
2022/08/22 06:42:52;;;;;;;4.13;2.57;;;17.80;99.90;;;;;;5019239;28;20226;-83
2022/08/22 06:45:28;;;;;;;3.40;2.60;;;18.30;99.90;;;;;;5015269;28;20701;-82
2022/08/22 06:48:17;;;;;;;11.80;3.77;;;18.60;99.90;;;;;;5012207;28;20309;-83
2022/08/22 06:50:48;;;;;;;4.23;3.40;;;18.90;99.90;;;;;;5023482;28;20323;-84
2022/08/22 06:53:16;;;;;;;8.37;3.73;;;18.80;99.90;;;;;;5015917;28;20195;-84
2022/08/22 06:55:54;;;;;;;7.00;4.47;;;19.10;99.90;;;;;;5018474;28;20330;-83
2022/08/22 06:58:27;;;;;;;9.37;4.33;;;20.00;99.90;;;;;;5015879;28;20634;-84
2022/08/22 07:01:00;;;;;;;5.73;3.13;;;21.60;99.90;;;;;;5026573;28;20218;-81
2022/08/22 07:03:33;;;;;;;5.97;3.67;;;23.10;99.90;;;;;;5065467;28;20232;-80
2022/08/22 07:06:00;;;;;;;9.67;3.57;;;24.20;99.90;;;;;;5103649;28;20718;-82
2022/08/22 07:08:29;;;;;;;8.90;2.90;;;24.90;99.90;;;;;;5101277;28;20652;-80
2022/08/22 07:11:13;;;;;;;7.77;2.63;;;25.60;99.90;;;;;;5081130;28;20195;-79
2022/08/22 07:13:45;;;;;;;3.40;2.58;;;25.40;99.90;;;;;;5099616;28;20718;-80
2022/08/22 07:16:11;;;;;;;6.32;2.72;;;25.80;99.90;;;;;;5106034;28;20303;-80
2022/08/22 07:18:47;;;;;;;4.47;2.47;;;24.50;99.90;;;;;;5106093;28;20367;-81
2022/08/22 07:21:24;;;;;;;5.78;2.60;;;24.30;99.90;;;;;;5103242;28;20220;-81
2022/08/22 07:23:50;;;;;;;3.95;2.47;;;25.20;99.90;;;;;;5083800;28;20653;-81
2022/08/22 07:26:37;;;;;;;5.55;2.85;;;24.50;99.90;;;;;;5090742;28;20179;-79
2022/08/22 07:29:32;;;;;;;3.25;2.38;;;23.90;99.90;;;;;;5086045;28;20616;-80
2022/08/22 07:32:08;;;;;;;5.28;2.35;;;23.70;99.90;;;;;;5112324;28;20293;-80
2022/08/22 07:35:02;;;;;;;3.13;2.40;;;23.80;99.90;;;;;;5111634;28;20214;-81
2022/08/22 07:37:37;;;;;;;3.92;2.08;;;23.80;99.90;;;;;;5101499;28;20213;-81
2022/08/22 07:40:28;;;;;;;3.55;1.80;;;23.90;99.90;;;;;;5106361;28;20272;-80
2022/08/22 07:43:26;;;;;;;4.60;1.98;;;23.20;99.90;;;;;;5083924;28;20244;-80
2022/08/22 07:45:59;;;;;;;3.40;2.25;;;23.20;99.90;;;;;;5081030;28;20216;-80
2022/08/22 07:48:34;;;;;;;6.45;2.00;;;23.40;99.90;;;;;;5106031;28;20248;-81
2022/08/22 07:51:06;;;;;;;2.83;1.80;;;22.90;99.90;;;;;;5105641;28;20219;-80
2022/08/22 07:53:35;;;;;;;5.30;1.95;;;23.00;99.90;;;;;;5105272;28;20295;-81
2022/08/22 07:56:04;;;;;;;6.15;1.95;;;22.90;99.90;;;;;;5104020;28;20721;-81
2022/08/22 07:58:34;;;;;;;5.68;2.17;;;23.10;99.90;;;;;;5102294;28;20208;-81
2022/08/22 08:01:00;;;;;;;4.78;1.98;;;23.50;99.90;;;;;;5104514;28;20299;-81
2022/08/22 08:03:28;;;;;;;4.97;2.03;;;23.30;99.90;;;;;;5105038;28;20694;-81
2022/08/22 08:05:55;;;;;;;5.03;2.10;;;23.60;99.90;;;;;;5090766;28;20212;-81
2022/08/22 08:08:24;;;;;;;3.63;1.77;;;23.50;99.90;;;;;;5087055;28;20199;-81
2022/08/22 08:10:53;;;;;;;1.80;1.50;;;23.50;99.90;;;;;;5105723;28;20184;-81
2022/08/22 08:13:30;;;;;;;2.58;1.98;;;23.60;99.90;;;;;;5103450;28;20313;-81
2022/08/22 08:15:57;;;;;;;3.38;1.67;;;23.20;99.90;;;;;;5103668;28;20216;-81
2022/08/22 08:18:26;;;;;;;2.28;1.60;;;23.20;99.90;;;;;;5110784;28;20546;-80
2022/08/22 08:21:01;;;;;;;5.60;2.08;;;23.40;99.90;;;;;;5101401;28;20212;-81
2022/08/22 08:23:34;;;;;;;4.32;1.60;;;23.80;99.90;;;;;;5084803;28;20211;-83
2022/08/22 08:25:59;;;;;;;3.28;1.50;;;23.60;99.90;;;;;;5088233;28;20226;-81
2022/08/22 08:28:34;;;;;;;4.20;1.52;;;23.00;99.90;;;;;;5100336;28;20224;-83
2022/08/22 08:31:23;;;;;;;4.65;1.90;;;22.90;99.90;;;;;;5072347;28;20215;-82
2022/08/22 08:33:58;;;;;;;7.60;1.80;;;23.40;99.90;;;;;;5102625;28;20232;-85
2022/08/22 08:36:34;;;;;;;3.67;1.80;;;23.60;99.90;;;;;;5090267;28;20242;-81
2022/08/22 08:39:11;;;;;;;4.57;1.80;;;24.30;99.90;;;;;;5095871;28;20754;-83
2022/08/22 08:41:57;;;;;;;5.18;1.67;;;24.00;99.90;;;;;;5103979;28;20244;-80
2022/08/22 08:45:00;;;;;;;4.47;1.95;;;23.60;99.90;;;;;;5100900;28;20185;-82
2022/08/22 08:47:58;;;;;;;3.70;1.48;;;23.30;99.90;;;;;;5083490;28;20685;-82
2022/08/22 08:51:15;;;;;;;3.13;1.75;;;23.20;99.90;;;;;;5105237;28;20168;-81
2022/08/22 08:54:26;;;;;;;3.95;1.65;;;23.80;99.90;;;;;;5067465;28;20299;-81
2022/08/22 08:57:16;;;;;;;3.33;1.50;;;24.50;99.90;;;;;;5071445;28;20212;-81
2022/08/22 09:00:00;;;;;;;4.57;2.00;;;24.70;99.90;;;;;;5090927;28;20223;-81
2022/08/22 09:02:54;;;;;;;4.03;1.90;;;24.60;99.90;;;;;;5104285;28;20168;-82
2022/08/22 09:05:35;;;;;;;4.82;1.65;;;25.10;99.90;;;;;;5106977;28;20263;-81
2022/08/22 09:08:15;;;;;;;3.85;1.98;;;24.00;99.90;;;;;;5101484;28;20184;-81
2022/08/22 09:11:19;;;;;;;2.65;1.52;;;24.70;99.90;;;;;;5098746;28;20220;-81
2022/08/22 09:13:59;;;;;;;3.42;1.55;;;24.70;99.90;;;;;;5103733;28;20588;-81
2022/08/22 09:17:03;;;;;;;1.27;1.13;;;24.70;99.90;;;;;;5099806;28;20226;-80
2022/08/22 09:19:43;;;;;;;6.38;1.85;;;24.20;99.90;;;;;;5089152;28;20222;-83
2022/08/22 09:22:53;;;;;;;2.15;1.73;;;24.10;99.90;;;;;;5085675;28;20203;-83
2022/08/22 09:25:35;;;;;;;2.22;1.58;;;23.10;99.90;;;;;;5057194;28;20239;-84
2022/08/22 09:28:20;;;;;;;4.20;1.70;;;23.70;99.90;;;;;;5081217;28;20214;-84
2022/08/22 09:31:00;;;;;;;4.70;1.58;;;23.50;99.90;;;;;;5085038;28;20236;-84
2022/08/22 09:33:50;;;;;;;3.20;1.83;;;23.40;99.90;;;;;;5102868;28;20228;-83
2022/08/22 09:36:35;;;;;;;5.10;1.70;;;24.20;99.90;;;;;;5104206;28;20284;-83
2022/08/22 09:39:23;;;;;;;1.83;1.35;;;24.20;99.90;;;;;;5100133;28;20216;-83
2022/08/22 09:42:03;;;;;;;2.08;1.60;;;24.90;99.90;;;;;;5103726;28;20215;-81
2022/08/22 09:44:54;;;;;;;7.00;1.70;;;24.90;99.90;;;;;;5084082;28;20257;-85
2022/08/22 09:47:26;;;;;;;2.20;1.63;;;25.20;99.90;;;;;;5100351;28;20326;-81
2022/08/22 09:50:04;;;;;;;2.53;1.73;;;25.00;99.90;;;;;;5102394;28;20175;-80
2022/08/22 09:52:54;;;;;;;3.40;1.77;;;24.20;99.90;;;;;;5089112;28;20219;-83
2022/08/22 09:55:36;;;;;;;3.35;1.88;;;24.90;99.90;;;;;;5083659;28;20302;-83
2022/08/22 09:58:06;;;;;;;5.57;2.03;;;25.10;99.90;;;;;;5081140;28;20679;-83
2022/08/22 10:00:43;;;;;;;3.00;1.77;;;24.10;99.90;;;;;;5100468;28;20223;-80
2022/08/22 10:03:46;;;;;;;4.50;2.00;;;24.70;99.90;;;;;;5080024;28;20242;-82
2022/08/22 10:06:26;;;;;;;2.13;1.70;;;24.50;99.90;;;;;;5025876;28;20309;-82
2022/08/22 10:09:06;;;;;;;1.92;1.30;;;24.60;99.90;;;;;;5016481;28;20218;-82
2022/08/22 10:11:40;;;;;;;4.55;1.58;;;24.70;99.90;;;;;;5027769;28;20752;-83
2022/08/22 10:14:24;;;;;;;4.05;1.67;;;24.40;99.90;;;;;;5027644;28;20280;-82
2022/08/22 10:16:53;;;;;;;3.00;1.40;;;24.60;99.90;;;;;;5025654;28;20669;-82
2022/08/22 10:19:25;;;;;;;4.22;1.52;;;24.80;99.90;;;;;;5027314;28;20242;-83
2022/08/22 10:22:10;;;;;;;4.00;1.60;;;25.70;99.90;;;;;;5110865;28;20203;-82
2022/08/22 10:24:57;;;;;;;4.40;1.50;;;25.40;99.90;;;;;;5016664;28;20677;-83
2022/08/22 10:27:34;;;;;;;5.28;1.52;;;25.40;99.90;;;;;;5016675;28;20215;-82
2022/08/22 10:30:18;;;;;;;2.45;1.73;;;25.70;99.90;;;;;;5011964;28;20616;-82
2022/08/22 10:32:48;;;;;;;2.47;1.45;;;26.10;99.90;;;;;;5015273;28;20230;-81
2022/08/22 10:35:29;;;;;;;4.53;1.45;;;25.70;99.90;;;;;;5016535;28;20183;-83
2022/08/22 10:38:19;;;;;;;2.30;1.48;;;25.70;99.90;;;;;;5017285;28;20230;-84
2022/08/22 10:40:54;;;;;;;4.50;1.73;;;25.90;99.90;;;;;;5015779;28;20219;-80
2022/08/22 10:43:37;;;;;;;2.95;1.60;;;25.60;99.90;;;;;;5017168;28;20596;-83
2022/08/22 10:46:14;;;;;;;2.70;1.42;;;25.80;99.90;;;;;;5019210;28;20677;-81
2022/08/22 10:48:54;;;;;;;2.33;1.60;;;26.30;99.90;;;;;;5022373;28;20222;-82
2022/08/22 10:51:43;;;;;;;1.75;1.25;;;26.20;99.90;;;;;;5026582;28;20701;-82
2022/08/22 10:54:21;;;;;;;1.67;1.20;;;25.60;99.90;;;;;;5027511;28;20239;-82
2022/08/22 10:56:54;;;;;;;2.47;1.50;;;25.30;99.90;;;;;;5018465;28;20696;-83
2022/08/22 10:59:29;;;;;;;1.52;1.40;;;25.70;99.90;;;;;;5022746;28;20206;-82
2022/08/22 11:02:22;;;;;;;3.78;1.40;;;25.60;99.90;;;;;;5022994;28;20218;-81
2022/08/22 11:05:12;;;;;;;4.18;1.60;;;27.10;99.90;;;;;;5014172;28;20223;-82
2022/08/22 11:07:49;;;;;;;3.45;1.20;;;26.50;99.90;;;;;;5018111;28;20709;-82
2022/08/22 11:10:57;;;;;;;2.13;1.30;;;25.30;99.90;;;;;;5018521;28;20223;-83
2022/08/22 11:13:34;;;;;;;4.10;1.52;;;25.60;99.90;;;;;;5020909;28;20250;-80
2022/08/22 11:16:06;;;;;;;2.38;1.40;;;26.50;99.90;;;;;;5017360;28;20226;-80
2022/08/22 11:19:12;;;;;;;2.47;1.20;;;25.50;99.90;;;;;;5019009;28;20220;-80
2022/08/22 11:21:53;;;;;;;2.08;1.13;;;25.30;99.90;;;;;;5019001;28;20215;-81
2022/08/22 11:24:57;;;;;;;4.00;1.38;;;24.70;99.90;;;;;;5017565;28;20688;-83
2022/08/22 11:27:43;;;;;;;3.33;1.52;;;25.00;99.90;;;;;;5021242;28;20309;-82
2022/08/22 11:30:14;;;;;;;3.80;1.63;;;25.90;99.90;;;;;;5018677;28;20222;-82
2022/08/22 11:32:58;;;;;;;10.90;2.53;;;26.30;99.90;;;;;;5018861;28;20712;-80
2022/08/22 11:35:48;;;;;;;4.60;1.58;;;26.80;99.90;;;;;;5024950;28;20191;-80
2022/08/22 11:38:51;;;;;;;1.60;1.50;;;26.10;99.90;;;;;;5015381;28;20188;-80
2022/08/22 11:41:30;;;;;;;5.57;1.75;;;25.20;99.90;;;;;;5021396;28;20222;-80
2022/08/22 11:44:01;;;;;;;1.73;1.20;;;24.90;99.90;;;;;;5016919;28;20191;-80
2022/08/22 11:46:31;;;;;;;4.78;1.50;;;24.90;99.90;;;;;;5025353;28;20272;-80
2022/08/22 11:49:34;;;;;;;3.63;1.77;;;25.70;99.90;;;;;;5018308;28;20239;-80
2022/08/22 11:52:06;;;;;;;1.48;1.35;;;25.30;99.90;;;;;;5020344;28;20215;-80
2022/08/22 11:54:44;;;;;;;3.50;1.65;;;25.60;99.90;;;;;;5020342;28;20242;-84
2022/08/22 11:57:18;;;;;;;3.90;1.45;;;25.90;99.90;;;;;;5023109;28;20417;-82
2022/08/22 11:59:44;;;;;;;4.80;1.63;;;27.10;99.90;;;;;;5018257;28;20226;-82
2022/08/22 12:02:20;;;;;;;6.28;1.98;;;27.20;99.90;;;;;;5017656;28;20191;-80
2022/08/22 12:04:57;;;;;;;6.18;1.70;;;26.80;99.90;;;;;;5018534;28;20218;-80
2022/08/22 12:07:35;;;;;;;1.75;1.55;;;27.00;99.90;;;;;;5020566;28;20250;-80
2022/08/22 12:10:19;;;;;;;3.22;1.63;;;27.60;99.90;;;;;;5017634;28;20221;-81
2022/08/22 12:12:47;;;;;;;3.03;1.55;;;27.50;99.90;;;;;;5016453;28;20593;-82
2022/08/22 12:15:30;;;;;;;2.20;1.45;;;28.30;99.90;;;;;;5019498;28;20221;-81
2022/08/22 12:18:37;;;;;;;7.57;1.50;;;27.90;99.90;;;;;;5021824;28;20577;-82
2022/08/22 12:21:49;;;;;;;2.83;2.00;;;26.10;99.90;;;;;;5016664;28;20223;-82
2022/08/22 12:24:50;;;;;;;3.05;1.67;;;25.40;99.90;;;;;;5020755;28;20650;-82
2022/08/22 12:27:41;;;;;;;5.03;1.73;;;25.40;99.90;;;;;;5017941;28;20224;-82
2022/08/22 12:30:38;;;;;;;3.75;1.48;;;24.70;99.90;;;;;;5019614;28;20288;-82
2022/08/22 12:33:22;;;;;;;3.50;1.60;;;25.10;99.90;;;;;;5020844;28;20230;-82
2022/08/22 12:35:51;;;;;;;3.45;1.52;;;25.40;99.90;;;;;;5019284;28;20693;-83
2022/08/22 12:38:45;;;;;;;1.77;1.67;;;25.90;99.90;;;;;;5021684;28;20191;-81
2022/08/22 12:41:29;;;;;;;1.48;1.38;;;27.10;99.90;;;;;;5021536;28;20672;-81
2022/08/22 12:44:19;;;;;;;5.60;2.05;;;26.70;99.90;;;;;;5016195;28;20211;-82
2022/08/22 12:46:59;;;;;;;3.92;1.55;;;26.30;99.90;;;;;;5022095;28;20218;-82
2022/08/22 12:49:51;;;;;;;1.63;1.50;;;26.60;99.90;;;;;;5017735;28;20218;-83
2022/08/22 12:52:46;;;;;;;1.50;1.40;;;26.00;99.90;;;;;;5022326;28;20222;-81
2022/08/22 12:55:30;;;;;;;2.30;1.38;;;25.10;99.90;;;;;;4982239;28;20233;-82
2022/08/22 12:58:48;;;;;;;6.00;2.00;;;23.90;99.90;;;;;;5019299;28;20223;-82
2022/08/22 13:01:14;;;;;;;2.25;1.92;;;23.60;99.90;;;;;;4989982;28;20219;-81
2022/08/22 13:03:55;;;;;;;7.13;1.98;;;23.40;99.90;;;;;;5067269;28;20243;-82
2022/08/22 13:06:35;;;;;;;3.22;1.52;;;23.40;99.90;;;;;;5103678;28;20224;-83
2022/08/22 13:09:22;;;;;;;3.55;1.70;;;24.20;99.90;;;;;;5098567;28;20212;-83
2022/08/22 13:11:51;;;;;;;2.97;1.98;;;24.70;99.90;;;;;;5100783;28;20318;-83
2022/08/22 13:14:25;;;;;;;3.20;1.50;;;24.80;99.90;;;;;;5084064;28;20208;-81
2022/08/22 13:16:55;;;;;;;3.03;1.70;;;25.10;99.90;;;;;;5081750;28;20763;-83
2022/08/22 13:19:31;;;;;;;4.95;1.85;;;25.50;99.90;;;;;;5106992;28;20220;-83
2022/08/22 13:22:08;;;;;;;3.97;1.70;;;25.30;99.90;;;;;;5081442;28;20208;-83
2022/08/22 13:25:22;;;;;;;4.55;1.63;;;25.20;99.90;;;;;;5103489;28;20231;-82
2022/08/22 13:27:51;;;;;;;2.92;1.63;;;25.00;99.90;;;;;;5009385;28;20419;-82
2022/08/22 13:30:28;;;;;;;2.03;1.40;;;25.10;99.90;;;;;;5081436;28;20221;-82
2022/08/22 13:33:08;;;;;;;4.50;1.70;;;25.30;99.90;;;;;;5100438;28;20227;-83
2022/08/22 13:35:48;;;;;;;2.60;1.90;;;25.40;99.90;;;;;;5083001;28;20207;-82
2022/08/22 13:38:24;;;;;;;5.38;1.73;;;25.80;99.90;;;;;;5103883;28;20184;-84
2022/08/22 13:40:52;;;;;;;3.65;2.35;;;25.80;99.90;;;;;;5103610;28;20627;-84
2022/08/22 13:43:22;;;;;;;4.80;1.55;;;25.50;99.90;;;;;;5099054;28;20215;-83
2022/08/22 13:45:58;;;;;;;3.75;1.77;;;24.80;99.90;;;;;;5099406;28;20238;-83
2022/08/22 13:48:30;;;;;;;3.10;1.75;;;24.10;99.90;;;;;;5084814;28;20212;-82
2022/08/22 13:51:15;;;;;;;7.82;1.90;;;24.00;99.90;;;;;;5105600;28;20734;-83
2022/08/22 13:53:50;;;;;;;7.35;2.33;;;24.40;99.90;;;;;;5103249;28;20690;-83
2022/08/22 13:56:24;;;;;;;5.18;2.25;;;25.00;99.90;;;;;;5081805;28;20641;-84
2022/08/22 13:58:56;;;;;;;2.10;1.88;;;25.70;99.90;;;;;;5099697;28;20265;-83
2022/08/22 14:01:37;;;;;;;4.25;1.30;;;26.20;99.90;;;;;;5099034;28;20216;-83
2022/08/22 14:04:27;;;;;;;2.65;1.60;;;25.90;99.90;;;;;;5095740;28;20335;-84